Airfield :
LOGIN :

Register | Disclaimer

   EN    FR    IT 

 










Legend :    VFR   Marginal VFR   IFR   Intensive IFR   Very Intensive IFR
Visi :
Ceiling :
>= 8 km
>= 3000ft
5 to 8 km
1000 to 3000 ft
1500m to 5 km
500 to 1000 ft
800 to 1500m
200 to 500 ft
< 800m
< 200 ft
Symbols :   Thunderstorms  Fog  Heavy snow  Heavy precipitations  Wind > 20 kt
SIGMETs :     Misc.  Thunderstorms  Icing  Turbulence  Mountain Waves  Volcanic Ashes






- Airport Elevation : 127 ft
- IATA code : JTR


LGSR - Santorini

CURRENT METAR :
  • 210350Z 35026KT 9999 BKN025 12/09 Q1010

EXPIRED METARs :
  • 210320Z 27020KT 9999 BKN025 12/09 Q1010 RERA

TAF TAF LGSR
Valid from the 21 at 00:00 until the 22 at 00:00 UTC


202300Z 2100/2124 34020KT 9999 FEW020 SCT025
PROB40
TEMPO 2100/2106 5000 RA SCT018TCU BKN025
PROB30
TEMPO 2100/2103 4000 TSRA FEW010 FEW018CB BKN020
BECMG 2100/2102 36022G32KT



MET'MAP, your aeronautical weather chart ! - Copyright ORBIFLY December 2007 - Disclaimer

ORBIFLY MET'MAP TEAM :

Programming & Development : Alexandra Zaïnal
Concept & original design : Baudouin d'Aumeries
Assistance for programming : Marc-Olivier Méhu
Technical & hardware support : Manuel Goepfert

Contact : metmap@orbifly.com




SOURCES & CREDITS :

   NOAA